KARA/ARA METAR and TAF weather

Enter ICAO airport designator
Station Type Date Time Source
KARA METAR 2020/03/28 20:53 UTC NOAA

KARA 282053Z 19015G28KT 10SM FEW027 BKN032 BKN046 28/23 A2988 RMK AO2 PK WND 19030/2024 SLP117 T02830228 56013


Station Type Date Time Source
KARA Decoded METAR 2020/03/28 20:53 UTC NOAA

NEW IBERIA ACADIANA REGIONAL, LA, United States (KARA) 30-02N 091-53W 18M
Mar 28, 2020 - 04:53 PM EDT / 2020.03.28 2053 UTC
Wind: from the S (190 degrees) at 17 MPH (15 KT) gusting to 32 MPH (28 KT):0
Visibility: 10 mile(s):0
Sky conditions: mostly cloudy
Temperature: 82.9 F (28.3 C)
Dew Point: 73.0 F (22.8 C)
Relative Humidity: 72%
Pressure (altimeter): 29.88 in. Hg (1011 hPa)
Pressure tendency: 0.04 inches (1.3 hPa) lower than three hours ago
ob: KARA 282053Z 19015G28KT 10SM FEW027 BKN032 BKN046 28/23 A2988 RMK AO2 PK WND 19030/2024 SLP117 T02830228 56013
cycle: 21

Station Type Date Time Source
KARA TAF 2020/03/28 18:27 UTC NOAA

TAF KARA 281725Z 2818/2918 18014G22KT P6SM SCT035 BKN050
FM290100 20011KT P6SM VCSH OVC025
FM290700 27007KT P6SM VCSH OVC015
FM291000 32005KT P6SM OVC025
FM291400 03008KT P6SM BKN050

Example: see airport list